createdAt,value
2023-05-08T00:01:34.164Z,82.08
2023-05-08T00:04:37.040Z,82.68
2023-05-08T00:07:39.826Z,82.26
2023-05-08T00:10:42.919Z,82.09
2023-05-08T00:13:45.618Z,82.95
2023-05-08T00:16:48.459Z,83.15
2023-05-08T00:19:51.368Z,83.06
2023-05-08T00:22:54.186Z,82.95
2023-05-08T00:25:57.072Z,82.84
2023-05-08T00:28:59.674Z,83.24
2023-05-08T00:32:02.620Z,82.98
2023-05-08T00:35:05.762Z,82.61
2023-05-08T00:38:08.606Z,82.36
2023-05-08T00:41:11.325Z,83.07
2023-05-08T00:44:14.091Z,82.74
2023-05-08T00:47:17.028Z,82.74
2023-05-08T00:50:19.940Z,83.32
2023-05-08T00:53:23.372Z,82.86
2023-05-08T00:56:26.204Z,82.84
2023-05-08T00:59:29.036Z,82.72
2023-05-08T01:02:33.263Z,82.42
2023-05-08T01:05:39.143Z,81.87
2023-05-08T01:08:48.081Z,82.43
2023-05-08T01:12:04.460Z,81.71
2023-05-08T01:15:10.407Z,81.98
2023-05-08T01:18:25.573Z,82.01
2023-05-08T01:21:35.216Z,82.22
2023-05-08T01:24:38.097Z,82.07
2023-05-08T01:28:08.498Z,81.72
2023-05-08T01:31:29.321Z,81.79
2023-05-08T01:34:33.697Z,82.19
2023-05-08T01:37:46.590Z,82.05
2023-05-08T01:40:58.305Z,81.88
2023-05-08T01:44:12.898Z,81.33
2023-05-08T01:47:16.243Z,81.51
2023-05-08T01:50:22.915Z,81.56
2023-05-08T01:53:38.195Z,81.69
2023-05-08T01:56:44.591Z,81.82
2023-05-08T01:59:48.574Z,81.98
2023-05-08T02:02:52.370Z,81.58
2023-05-08T02:05:56.244Z,82.02
2023-05-08T02:09:00.410Z,81.53
2023-05-08T02:12:04.297Z,82.03
2023-05-08T02:15:10.498Z,81.58
2023-05-08T02:18:15.526Z,81.88
2023-05-08T02:21:19.196Z,81.57
2023-05-08T02:24:22.994Z,82.08
2023-05-08T02:27:28.605Z,82.01
2023-05-08T02:30:33.342Z,81.41
2023-05-08T02:33:37.725Z,81.56
2023-05-08T02:36:40.717Z,81.65
2023-05-08T02:39:44.021Z,80.86
2023-05-08T02:42:47.325Z,81.42
2023-05-08T02:45:50.714Z,81.46
2023-05-08T02:48:57.815Z,81.32
2023-05-08T02:52:14.017Z,80.96
2023-05-08T02:55:30.101Z,81.51
2023-05-08T02:58:37.898Z,81.08
2023-05-08T03:01:46.703Z,81.34
2023-05-08T03:04:52.395Z,81.17
2023-05-08T03:07:56.525Z,81.74
2023-05-08T03:11:10.785Z,81.18
2023-05-08T03:14:15.403Z,80.87
2023-05-08T03:17:20.750Z,81.00
2023-05-08T03:20:26.942Z,80.50
2023-05-08T03:23:30.397Z,80.92
2023-05-08T03:26:33.576Z,81.50
2023-05-08T03:29:38.016Z,81.25
2023-05-08T03:32:41.076Z,80.51
2023-05-08T03:35:46.007Z,81.01
2023-05-08T03:38:49.172Z,80.84
2023-05-08T03:41:52.392Z,81.36
2023-05-08T03:44:55.442Z,80.99
2023-05-08T03:47:59.710Z,80.38
2023-05-08T03:51:04.172Z,80.77
2023-05-08T03:54:08.589Z,80.16
2023-05-08T03:57:11.758Z,80.00
2023-05-08T04:00:50.777Z,80.32
2023-05-08T04:04:00.372Z,79.72
2023-05-08T04:07:11.143Z,79.96
2023-05-08T04:10:27.633Z,79.90
2023-05-08T04:13:32.340Z,66.31
2023-05-08T04:16:41.224Z,59.05
2023-05-08T04:19:47.255Z,55.02
2023-05-08T04:22:51.142Z,54.96
2023-05-08T04:25:55.966Z,53.52
2023-05-08T04:28:59.021Z,51.93
2023-05-08T04:32:01.967Z,51.47
2023-05-08T04:35:06.715Z,54.92
2023-05-08T04:38:09.963Z,60.45
2023-05-08T04:41:12.914Z,64.14
2023-05-08T04:44:16.477Z,66.44
2023-05-08T04:47:20.095Z,67.99
2023-05-08T04:50:23.324Z,68.33
2023-05-08T04:53:26.228Z,68.71
2023-05-08T04:56:29.893Z,68.27
2023-05-08T04:59:33.485Z,68.42
2023-05-08T05:02:36.696Z,69.23
2023-05-08T05:05:43.432Z,68.67
2023-05-08T05:08:46.315Z,68.91
2023-05-08T05:11:49.267Z,68.04
2023-05-08T05:14:53.103Z,69.03
2023-05-08T05:17:56.208Z,68.20
2023-05-08T05:20:59.891Z,69.42
2023-05-08T05:24:06.333Z,70.37
2023-05-08T05:27:09.367Z,69.71
2023-05-08T05:30:13.038Z,68.45
2023-05-08T05:33:16.894Z,68.16
2023-05-08T05:36:20.380Z,67.65
2023-05-08T05:39:23.670Z,66.86
2023-05-08T05:42:26.785Z,67.09
2023-05-08T05:45:33.202Z,66.93
2023-05-08T05:48:37.391Z,66.62
2023-05-08T05:51:40.621Z,66.35
2023-05-08T05:54:44.090Z,65.13
2023-05-08T05:57:47.705Z,66.17
2023-05-08T06:00:50.705Z,65.90
2023-05-08T06:03:54.217Z,65.78
2023-05-08T06:06:57.398Z,65.88
2023-05-08T06:10:00.444Z,63.18
2023-05-08T06:13:03.713Z,64.24
2023-05-08T06:16:08.420Z,64.74
2023-05-08T06:19:11.507Z,63.29
2023-05-08T06:22:14.235Z,62.99
2023-05-08T06:25:18.116Z,63.06
2023-05-08T06:28:22.787Z,63.23
2023-05-08T06:31:25.883Z,62.55
2023-05-08T06:34:28.754Z,62.09
2023-05-08T06:37:31.532Z,62.17
2023-05-08T06:40:34.706Z,60.21
2023-05-08T06:43:37.475Z,61.27
2023-05-08T06:46:40.312Z,61.07
2023-05-08T06:49:43.072Z,59.38
2023-05-08T06:52:46.457Z,58.90
2023-05-08T06:55:49.192Z,60.11
2023-05-08T06:59:01.028Z,59.57
2023-05-08T07:02:11.165Z,59.36
2023-05-08T07:05:14.617Z,57.57
2023-05-08T07:08:17.749Z,58.42
2023-05-08T07:11:20.583Z,57.71
2023-05-08T07:14:23.385Z,57.63
2023-05-08T07:17:27.295Z,57.31
2023-05-08T07:20:30.868Z,56.80
2023-05-08T07:23:33.683Z,55.92
2023-05-08T07:26:38.485Z,57.74
2023-05-08T07:29:41.644Z,56.89
2023-05-08T07:32:44.995Z,55.92
2023-05-08T07:35:47.999Z,55.81
2023-05-08T07:38:51.030Z,55.53
2023-05-08T07:41:56.357Z,56.27
2023-05-08T07:44:59.359Z,54.46
2023-05-08T07:48:02.041Z,55.03
2023-05-08T07:51:05.060Z,54.48
2023-05-08T07:54:07.820Z,55.70
2023-05-08T07:57:10.548Z,55.42
2023-05-08T08:00:15.176Z,54.12
2023-05-08T08:03:18.077Z,54.28
2023-05-08T08:06:20.978Z,53.49
2023-05-08T08:09:23.800Z,53.90
2023-05-08T08:12:27.072Z,51.56
2023-05-08T08:15:30.084Z,51.55
2023-05-08T08:18:37.055Z,51.47
2023-05-08T08:21:44.296Z,48.06
2023-05-08T08:24:47.308Z,50.37
2023-05-08T08:27:50.236Z,47.46
2023-05-08T08:30:52.982Z,49.59
2023-05-08T08:33:55.912Z,49.38
2023-05-08T08:36:59.493Z,50.64
2023-05-08T08:40:02.560Z,49.15
2023-05-08T08:43:06.368Z,54.03
2023-05-08T08:46:16.094Z,52.10
2023-05-08T08:49:31.333Z,52.86
2023-05-08T08:53:01.507Z,49.75
2023-05-08T08:56:07.614Z,51.56
2023-05-08T08:59:12.386Z,51.12
2023-05-08T09:02:18.343Z,52.28
2023-05-08T09:05:24.016Z,51.27
2023-05-08T09:08:27.029Z,51.02
2023-05-08T09:11:32.660Z,51.39
2023-05-08T09:14:35.471Z,52.17
2023-05-08T09:17:38.718Z,51.16
2023-05-08T09:20:41.598Z,50.20
2023-05-08T09:24:01.565Z,49.46
2023-05-08T09:27:06.459Z,49.76
2023-05-08T09:30:13.498Z,50.85
2023-05-08T09:33:16.788Z,50.54
2023-05-08T09:36:29.139Z,50.86
2023-05-08T09:39:32.737Z,48.19
2023-05-08T09:42:39.110Z,47.99
2023-05-08T09:45:43.026Z,49.63
2023-05-08T09:48:46.590Z,47.95
2023-05-08T09:51:56.368Z,47.65
2023-05-08T09:55:09.852Z,47.38
2023-05-08T09:58:12.892Z,47.90
2023-05-08T10:01:36.891Z,45.62
2023-05-08T10:04:39.940Z,45.73
2023-05-08T10:07:42.909Z,48.79
2023-05-08T10:10:46.520Z,46.72
2023-05-08T10:13:49.424Z,46.25
2023-05-08T10:16:54.407Z,48.06
2023-05-08T10:20:02.290Z,45.20
2023-05-08T10:23:11.640Z,45.36
2023-05-08T10:26:16.970Z,45.69
2023-05-08T10:29:27.945Z,43.67
2023-05-08T10:32:40.929Z,43.82
2023-05-08T10:35:43.924Z,43.97
2023-05-08T10:38:46.861Z,44.62
2023-05-08T10:41:50.750Z,44.51
2023-05-08T10:44:53.935Z,45.68
2023-05-08T10:48:12.297Z,45.49
2023-05-08T10:51:33.800Z,43.13
2023-05-08T10:55:04.968Z,43.77
2023-05-08T10:58:16.073Z,41.86
2023-05-08T11:01:19.206Z,43.97
2023-05-08T11:04:23.450Z,43.32
2023-05-08T11:07:58.830Z,44.22
2023-05-08T11:11:02.680Z,41.73
2023-05-08T11:14:08.610Z,42.96
2023-05-08T11:17:11.647Z,41.98
2023-05-08T11:20:15.048Z,43.18
2023-05-08T11:23:28.631Z,44.05
2023-05-08T11:26:43.384Z,42.92
2023-05-08T11:30:08.458Z,42.83
2023-05-08T11:33:11.610Z,46.20
2023-05-08T11:36:15.435Z,46.51
2023-05-08T11:39:21.021Z,43.30
2023-05-08T11:42:29.456Z,43.27
2023-05-08T11:45:32.755Z,45.17
2023-05-08T11:48:36.476Z,42.11
2023-05-08T11:51:39.582Z,42.63
2023-05-08T11:54:42.772Z,44.67
2023-05-08T11:57:45.677Z,42.80
2023-05-08T12:00:49.162Z,42.51
2023-05-08T12:04:01.376Z,41.35
2023-05-08T12:07:04.473Z,41.33
2023-05-08T12:10:07.927Z,41.88
2023-05-08T12:13:25.448Z,43.16
2023-05-08T12:16:28.556Z,43.62
2023-05-08T12:19:31.573Z,43.91
2023-05-08T12:22:35.054Z,41.78
2023-05-08T12:25:40.997Z,41.02
2023-05-08T12:28:45.467Z,42.27
2023-05-08T12:31:51.250Z,42.02
2023-05-08T12:34:54.188Z,42.55
2023-05-08T12:38:08.415Z,38.59
2023-05-08T12:41:11.462Z,40.65
2023-05-08T12:44:24.739Z,38.82
2023-05-08T12:47:27.627Z,40.17
2023-05-08T12:50:39.271Z,38.52
2023-05-08T12:53:42.138Z,40.25
2023-05-08T12:56:45.353Z,39.22
2023-05-08T12:59:48.209Z,40.25
2023-05-08T13:02:55.943Z,38.51
2023-05-08T13:05:59.548Z,37.80
2023-05-08T13:09:02.379Z,39.99
2023-05-08T13:12:07.053Z,38.45
2023-05-08T13:15:10.677Z,39.19
2023-05-08T13:18:13.633Z,40.73
2023-05-08T13:21:16.731Z,40.53
2023-05-08T13:24:19.421Z,36.93
2023-05-08T13:27:22.417Z,38.39
2023-05-08T13:30:25.318Z,38.99
2023-05-08T13:33:28.172Z,38.16
2023-05-08T13:36:32.147Z,38.80
2023-05-08T13:39:38.192Z,38.04
2023-05-08T13:42:41.045Z,38.72
2023-05-08T13:45:43.998Z,40.13
2023-05-08T13:48:46.783Z,38.24
2023-05-08T13:51:55.052Z,37.65
2023-05-08T13:54:59.752Z,38.71
2023-05-08T13:58:02.834Z,38.02
2023-05-08T14:01:21.950Z,38.07
2023-05-08T14:04:28.679Z,37.82
2023-05-08T14:07:31.519Z,38.17
2023-05-08T14:10:34.361Z,38.91
2023-05-08T14:13:39.075Z,39.93
2023-05-08T14:16:42.050Z,39.26
2023-05-08T14:19:46.517Z,37.86
2023-05-08T14:22:49.707Z,37.27
2023-05-08T14:25:52.490Z,37.87
2023-05-08T14:28:55.303Z,38.24
2023-05-08T14:31:58.069Z,37.57
2023-05-08T14:35:00.970Z,38.26
2023-05-08T14:38:03.756Z,37.58
2023-05-08T14:41:06.724Z,38.07
2023-05-08T14:44:16.891Z,38.11
2023-05-08T14:47:20.032Z,39.21
2023-05-08T14:50:24.444Z,38.04
2023-05-08T14:53:27.600Z,37.77
2023-05-08T14:56:40.482Z,38.04
2023-05-08T14:59:54.969Z,40.14
2023-05-08T15:02:58.327Z,38.88
2023-05-08T15:06:01.420Z,39.02
2023-05-08T15:09:04.148Z,38.46
2023-05-08T15:12:07.123Z,37.88
2023-05-08T15:15:10.444Z,37.82
2023-05-08T15:18:13.180Z,40.41
2023-05-08T15:21:16.555Z,38.11
2023-05-08T15:24:19.752Z,38.23
2023-05-08T15:27:22.376Z,40.02
2023-05-08T15:30:25.463Z,39.02
2023-05-08T15:33:28.244Z,39.49
2023-05-08T15:36:33.497Z,38.12
2023-05-08T15:39:37.461Z,39.85
2023-05-08T15:42:40.471Z,40.07
2023-05-08T15:45:43.416Z,39.73
2023-05-08T15:48:46.154Z,40.06
2023-05-08T15:51:49.052Z,39.79
2023-05-08T15:54:51.950Z,39.64
2023-05-08T15:57:54.855Z,40.37
2023-05-08T16:00:58.338Z,40.62
2023-05-08T16:04:01.454Z,40.64
2023-05-08T16:07:04.947Z,40.26
2023-05-08T16:10:08.640Z,41.35
2023-05-08T16:13:11.793Z,41.76
2023-05-08T16:16:14.845Z,41.05
2023-05-08T16:19:17.771Z,42.23
2023-05-08T16:22:20.790Z,41.81
2023-05-08T16:25:23.732Z,41.80
2023-05-08T16:28:27.025Z,42.08
2023-05-08T16:31:29.983Z,41.99
2023-05-08T16:34:32.986Z,42.59
2023-05-08T16:37:37.485Z,42.21
2023-05-08T16:40:42.147Z,42.51
2023-05-08T16:43:45.378Z,42.55
2023-05-08T16:46:48.170Z,42.96
2023-05-08T16:49:51.092Z,43.17
2023-05-08T16:52:54.034Z,44.16
2023-05-08T16:55:57.039Z,44.17
2023-05-08T16:59:01.895Z,45.02
2023-05-08T17:02:04.875Z,44.44
2023-05-08T17:05:08.562Z,44.11
2023-05-08T17:08:12.398Z,45.40
2023-05-08T17:11:15.611Z,45.39
2023-05-08T17:14:19.075Z,45.85
2023-05-08T17:17:21.998Z,46.62
2023-05-08T17:20:25.065Z,46.27
2023-05-08T17:23:28.652Z,46.67
2023-05-08T17:26:34.922Z,47.88
2023-05-08T17:29:37.698Z,47.69
2023-05-08T17:32:40.999Z,47.28
2023-05-08T17:35:43.915Z,48.05
2023-05-08T17:38:47.756Z,48.65
2023-05-08T17:41:52.113Z,48.97
2023-05-08T17:44:55.253Z,49.18
2023-05-08T17:47:59.381Z,49.64
2023-05-08T17:51:03.576Z,49.93
2023-05-08T17:54:07.153Z,50.03
2023-05-08T17:57:10.472Z,50.08
2023-05-08T18:00:14.331Z,50.22
2023-05-08T18:03:17.798Z,50.35
2023-05-08T18:06:21.257Z,50.31
2023-05-08T18:09:24.332Z,50.38
2023-05-08T18:12:27.465Z,50.58
2023-05-08T18:15:30.595Z,50.49
2023-05-08T18:18:33.487Z,50.91
2023-05-08T18:21:36.972Z,51.61
2023-05-08T18:24:40.258Z,51.76
2023-05-08T18:27:43.539Z,52.81
2023-05-08T18:30:46.430Z,52.48
2023-05-08T18:33:49.418Z,52.81
2023-05-08T18:36:58.136Z,52.71
2023-05-08T18:40:02.671Z,53.55
2023-05-08T18:43:09.134Z,53.84
2023-05-08T18:46:13.359Z,54.03
2023-05-08T18:49:16.346Z,54.02
2023-05-08T18:52:20.940Z,54.62
2023-05-08T18:55:25.624Z,55.16
2023-05-08T18:58:28.499Z,55.43
2023-05-08T19:01:31.461Z,55.45
2023-05-08T19:04:34.199Z,55.59
2023-05-08T19:07:37.368Z,56.00
2023-05-08T19:10:40.191Z,56.55
2023-05-08T19:13:42.966Z,56.43
2023-05-08T19:16:45.839Z,56.60
2023-05-08T19:19:51.860Z,56.92
2023-05-08T19:22:55.039Z,57.34
2023-05-08T19:25:58.038Z,57.66
2023-05-08T19:29:01.089Z,58.13
2023-05-08T19:32:04.161Z,58.83
2023-05-08T19:35:08.760Z,58.79
2023-05-08T19:38:11.692Z,59.45
2023-05-08T19:44:45.524Z,58.51
2023-05-08T19:47:49.812Z,60.49
2023-05-08T19:50:54.805Z,61.00
2023-05-08T19:53:58.044Z,61.64
2023-05-08T19:57:01.000Z,61.91
2023-05-08T20:00:04.842Z,62.41
2023-05-08T20:03:07.871Z,62.16
2023-05-08T20:06:10.800Z,62.43
2023-05-08T20:09:13.389Z,61.93
2023-05-08T20:12:16.235Z,62.28
2023-05-08T20:15:19.121Z,62.46
2023-05-08T20:18:21.858Z,63.23
2023-05-08T20:21:26.449Z,63.57
2023-05-08T20:24:29.279Z,62.30
2023-05-08T20:27:34.305Z,61.98
2023-05-08T20:30:36.971Z,62.60
2023-05-08T20:33:39.836Z,63.69
2023-05-08T20:36:42.686Z,62.88
2023-05-08T20:39:45.525Z,62.69
2023-05-08T20:42:48.288Z,61.92
2023-05-08T20:45:51.215Z,62.74
2023-05-08T20:48:54.158Z,63.45
2023-05-08T20:51:56.843Z,62.97
2023-05-08T20:54:59.895Z,63.12
2023-05-08T20:58:04.486Z,62.90
2023-05-08T21:01:07.355Z,62.58
2023-05-08T21:04:10.057Z,63.01
2023-05-08T21:07:12.813Z,62.96
2023-05-08T21:10:16.794Z,63.20
2023-05-08T21:13:20.130Z,63.25
2023-05-08T21:16:24.878Z,63.66
2023-05-08T21:19:31.365Z,63.70
2023-05-08T21:22:34.395Z,63.55
2023-05-08T21:25:50.206Z,64.54
2023-05-08T21:28:54.009Z,65.07
2023-05-08T21:31:56.709Z,64.03
2023-05-08T21:34:59.392Z,64.02
2023-05-08T21:38:02.090Z,65.29
2023-05-08T21:41:08.776Z,66.45
2023-05-08T21:44:15.664Z,66.77
2023-05-08T21:47:18.358Z,64.83
2023-05-08T21:50:21.089Z,65.63
2023-05-08T21:53:23.890Z,66.04
2023-05-08T21:56:26.706Z,66.44
2023-05-08T21:59:29.381Z,65.43
2023-05-08T22:02:32.053Z,64.92
2023-05-08T22:05:34.704Z,65.49
2023-05-08T22:08:37.370Z,65.82
2023-05-08T22:11:40.046Z,65.20
2023-05-08T22:14:42.653Z,65.71
2023-05-08T22:17:45.376Z,66.40
2023-05-08T22:20:48.010Z,66.35
2023-05-08T22:23:50.711Z,65.30
2023-05-08T22:26:53.354Z,66.13
2023-05-08T22:29:56.055Z,66.62
2023-05-08T22:32:59.652Z,66.81
2023-05-08T22:36:02.255Z,67.34
2023-05-08T22:39:10.362Z,67.18
2023-05-08T22:42:13.101Z,68.22
2023-05-08T22:45:16.989Z,68.04
2023-05-08T22:48:19.886Z,66.79
2023-05-08T22:51:22.609Z,67.07
2023-05-08T22:54:25.246Z,67.39
2023-05-08T22:57:27.826Z,68.01
2023-05-08T23:00:30.772Z,67.98
2023-05-08T23:03:33.447Z,68.22
2023-05-08T23:06:36.552Z,67.96
2023-05-08T23:09:39.454Z,67.85
2023-05-08T23:12:43.220Z,68.49
2023-05-08T23:15:46.187Z,67.96
2023-05-08T23:18:48.790Z,67.86
2023-05-08T23:21:51.863Z,68.17
2023-05-08T23:24:55.031Z,68.13
2023-05-08T23:27:57.746Z,68.10
2023-05-08T23:31:01.305Z,67.94
2023-05-08T23:34:04.168Z,69.86
2023-05-08T23:37:06.920Z,69.20
2023-05-08T23:40:10.370Z,68.94
2023-05-08T23:43:13.250Z,68.62
2023-05-08T23:46:16.317Z,68.75
2023-05-08T23:49:19.521Z,68.67
2023-05-08T23:52:22.332Z,68.69
2023-05-08T23:55:25.128Z,68.57
2023-05-08T23:58:27.804Z,69.64
